createdAt,value
2023-02-21T00:00:10.019Z,56.69
2023-02-21T00:03:19.153Z,56.61
2023-02-21T00:06:05.882Z,56.44
2023-02-21T00:08:53.288Z,56.56
2023-02-21T00:11:40.444Z,56.43
2023-02-21T00:14:27.621Z,56.41
2023-02-21T00:17:14.991Z,56.22
2023-02-21T00:20:02.273Z,56.19
2023-02-21T00:22:49.600Z,55.93
2023-02-21T00:25:36.920Z,55.87
2023-02-21T00:28:23.950Z,56.01
2023-02-21T00:31:11.001Z,55.63
2023-02-21T00:33:58.265Z,55.77
2023-02-21T00:36:45.431Z,55.75
2023-02-21T00:39:32.709Z,55.76
2023-02-21T00:42:19.867Z,55.51
2023-02-21T00:45:06.969Z,55.33
2023-02-21T00:47:54.324Z,55.59
2023-02-21T00:50:41.331Z,55.47
2023-02-21T00:53:28.704Z,55.63
2023-02-21T00:56:16.000Z,55.42
2023-02-21T00:59:02.737Z,55.17
2023-02-21T01:01:50.565Z,55.41
2023-02-21T01:04:37.696Z,55.62
2023-02-21T01:07:24.709Z,55.62
2023-02-21T01:10:12.025Z,55.53
2023-02-21T01:12:59.349Z,55.82
2023-02-21T01:15:46.029Z,55.49
2023-02-21T01:18:33.722Z,55.70
2023-02-21T01:21:23.321Z,55.67
2023-02-21T01:24:10.391Z,55.92
2023-02-21T01:26:58.084Z,55.86
2023-02-21T01:29:45.333Z,55.75
2023-02-21T01:32:32.603Z,55.86
2023-02-21T01:35:19.605Z,55.91
2023-02-21T01:38:06.689Z,55.77
2023-02-21T01:40:54.140Z,56.00
2023-02-21T01:43:44.096Z,56.13
2023-02-21T01:46:39.001Z,56.04
2023-02-21T01:49:36.451Z,55.94
2023-02-21T01:52:24.910Z,55.70
2023-02-21T01:55:14.173Z,55.96
2023-02-21T01:58:04.806Z,55.88
2023-02-21T02:00:52.615Z,56.00
2023-02-21T02:03:41.265Z,56.16
2023-02-21T02:06:33.403Z,56.21
2023-02-21T02:09:41.508Z,56.34
2023-02-21T02:12:37.430Z,56.20
2023-02-21T02:15:37.708Z,56.41
2023-02-21T02:18:07.466Z,56.54
2023-02-21T02:20:57.450Z,56.63
2023-02-21T02:24:05.961Z,56.89
2023-02-21T02:27:21.527Z,56.78
2023-02-21T02:30:26.760Z,56.76
2023-02-21T02:33:30.627Z,57.15
2023-02-21T02:36:10.455Z,57.16
2023-02-21T02:39:22.866Z,57.09
2023-02-21T02:42:28.931Z,57.26
2023-02-21T02:45:06.121Z,57.25
2023-02-21T02:47:42.815Z,56.89
2023-02-21T02:50:13.146Z,57.15
2023-02-21T02:52:54.089Z,57.17
2023-02-21T02:55:40.490Z,56.98
2023-02-21T02:58:12.966Z,57.19
2023-02-21T03:00:50.448Z,56.71
2023-02-21T03:03:56.941Z,56.63
2023-02-21T03:06:37.479Z,56.81
2023-02-21T03:09:24.085Z,56.52
2023-02-21T03:12:19.825Z,56.64
2023-02-21T03:15:15.828Z,56.72
2023-02-21T03:18:01.417Z,56.88
2023-02-21T03:20:30.407Z,56.83
2023-02-21T03:23:03.090Z,56.82
2023-02-21T03:25:34.750Z,56.97
2023-02-21T03:28:04.966Z,56.96
2023-02-21T03:30:44.629Z,57.14
2023-02-21T03:33:13.189Z,56.95
2023-02-21T03:35:42.082Z,56.86
2023-02-21T03:38:11.382Z,56.93
2023-02-21T03:40:40.170Z,56.98
2023-02-21T03:43:08.762Z,57.26
2023-02-21T03:45:44.398Z,57.27
2023-02-21T03:48:26.177Z,57.40
2023-02-21T03:51:01.228Z,57.48
2023-02-21T03:53:33.305Z,57.45
2023-02-21T03:56:02.492Z,57.68
2023-02-21T03:58:38.470Z,57.66
2023-02-21T04:01:07.417Z,57.68
2023-02-21T04:03:36.230Z,57.82
2023-02-21T04:06:06.652Z,57.87
2023-02-21T04:08:35.549Z,57.86
2023-02-21T04:11:04.333Z,58.17
2023-02-21T04:13:35.888Z,57.99
2023-02-21T04:16:05.532Z,58.18
2023-02-21T04:18:37.744Z,58.15
2023-02-21T04:21:07.881Z,58.15
2023-02-21T04:23:36.874Z,58.14
2023-02-21T04:26:06.485Z,58.33
2023-02-21T04:28:46.732Z,58.44
2023-02-21T04:31:17.653Z,58.74
2023-02-21T04:33:46.625Z,58.79
2023-02-21T04:36:20.305Z,58.93
2023-02-21T04:38:50.614Z,58.68
2023-02-21T04:41:19.779Z,58.69
2023-02-21T04:43:48.377Z,58.80
2023-02-21T04:46:19.440Z,58.92
2023-02-21T04:48:51.397Z,59.05
2023-02-21T04:51:24.099Z,58.94
2023-02-21T04:53:54.243Z,58.94
2023-02-21T04:56:26.267Z,58.85
2023-02-21T04:58:55.164Z,58.85
2023-02-21T05:01:28.529Z,58.78
2023-02-21T05:03:58.628Z,58.79
2023-02-21T05:06:30.047Z,58.95
2023-02-21T05:08:59.916Z,58.75
2023-02-21T05:11:28.494Z,58.64
2023-02-21T05:13:56.892Z,58.60
2023-02-21T05:16:25.971Z,58.67
2023-02-21T05:18:54.629Z,58.50
2023-02-21T05:21:24.245Z,58.38
2023-02-21T05:23:59.117Z,57.96
2023-02-21T05:26:31.658Z,57.99
2023-02-21T05:29:00.160Z,58.07
2023-02-21T05:31:29.741Z,58.05
2023-02-21T05:33:58.688Z,57.97
2023-02-21T05:36:27.253Z,58.12
2023-02-21T05:38:56.571Z,58.25
2023-02-21T05:41:25.252Z,58.23
2023-02-21T05:43:54.434Z,58.21
2023-02-21T05:46:30.030Z,58.60
2023-02-21T05:49:00.606Z,58.06
2023-02-21T05:51:38.541Z,58.27
2023-02-21T05:54:10.061Z,58.31
2023-02-21T05:56:40.564Z,58.08
2023-02-21T05:59:10.479Z,57.85
2023-02-21T06:01:39.022Z,58.20
2023-02-21T06:04:10.456Z,58.08
2023-02-21T06:06:51.833Z,58.14
2023-02-21T06:09:20.809Z,58.14
2023-02-21T06:11:49.241Z,58.16
2023-02-21T06:14:20.851Z,57.98
2023-02-21T06:16:49.309Z,58.13
2023-02-21T06:19:19.027Z,58.10
2023-02-21T06:21:47.698Z,58.06
2023-02-21T06:24:16.152Z,57.92
2023-02-21T06:26:45.115Z,58.14
2023-02-21T06:29:13.780Z,58.31
2023-02-21T06:31:42.525Z,58.25
2023-02-21T06:34:11.501Z,58.04
2023-02-21T06:36:40.171Z,58.08
2023-02-21T06:39:10.976Z,58.09
2023-02-21T06:41:39.491Z,58.20
2023-02-21T06:44:07.932Z,58.08
2023-02-21T06:46:38.210Z,57.97
2023-02-21T06:49:07.119Z,58.00
2023-02-21T06:51:39.786Z,58.05
2023-02-21T06:54:08.265Z,58.23
2023-02-21T06:56:37.176Z,58.01
2023-02-21T06:59:05.740Z,58.14
2023-02-21T07:01:34.357Z,57.82
2023-02-21T07:04:03.025Z,57.54
2023-02-21T07:06:33.750Z,57.67
2023-02-21T07:09:02.562Z,57.88
2023-02-21T07:11:36.174Z,57.24
2023-02-21T07:14:05.091Z,57.11
2023-02-21T07:16:34.277Z,56.91
2023-02-21T07:19:02.828Z,57.02
2023-02-21T07:21:32.095Z,56.81
2023-02-21T07:24:00.876Z,56.48
2023-02-21T07:26:29.464Z,55.99
2023-02-21T07:28:57.959Z,56.01
2023-02-21T07:31:27.351Z,56.04
2023-02-21T07:33:56.294Z,55.70
2023-02-21T07:36:25.008Z,55.61
2023-02-21T07:38:53.522Z,55.24
2023-02-21T07:41:22.343Z,55.10
2023-02-21T07:43:51.390Z,55.14
2023-02-21T07:46:20.181Z,54.84
2023-02-21T07:48:48.889Z,53.99
2023-02-21T07:51:23.385Z,53.91
2023-02-21T07:53:51.861Z,53.72
2023-02-21T07:56:20.408Z,53.87
2023-02-21T07:58:49.066Z,52.93
2023-02-21T08:01:17.684Z,52.35
2023-02-21T08:03:46.215Z,52.56
2023-02-21T08:06:15.174Z,51.54
2023-02-21T08:08:44.381Z,51.48
2023-02-21T08:11:13.111Z,51.64
2023-02-21T08:13:41.788Z,51.38
2023-02-21T08:16:10.471Z,50.67
2023-02-21T08:18:39.018Z,50.38
2023-02-21T08:21:11.069Z,50.00
2023-02-21T08:23:39.866Z,49.02
2023-02-21T08:26:08.682Z,49.10
2023-02-21T08:28:37.604Z,48.81
2023-02-21T08:31:07.412Z,48.26
2023-02-21T08:33:36.002Z,47.77
2023-02-21T08:36:05.468Z,48.04
2023-02-21T08:38:34.674Z,47.58
2023-02-21T08:41:04.714Z,47.81
2023-02-21T08:43:33.410Z,47.34
2023-02-21T08:46:03.076Z,46.90
2023-02-21T08:48:31.606Z,47.20
2023-02-21T08:51:00.049Z,47.01
2023-02-21T08:53:28.477Z,47.20
2023-02-21T08:55:56.906Z,47.54
2023-02-21T08:58:25.511Z,46.67
2023-02-21T09:00:54.134Z,47.27
2023-02-21T09:03:22.730Z,47.54
2023-02-21T09:05:51.170Z,46.87
2023-02-21T09:08:21.152Z,46.98
2023-02-21T09:10:49.669Z,47.41
2023-02-21T09:13:18.153Z,47.61
2023-02-21T09:15:46.787Z,47.47
2023-02-21T09:18:16.200Z,47.69
2023-02-21T09:20:45.973Z,47.91
2023-02-21T09:23:15.782Z,47.35
2023-02-21T09:25:44.343Z,46.91
2023-02-21T09:28:14.031Z,46.68
2023-02-21T09:30:42.838Z,46.89
2023-02-21T09:33:12.755Z,47.14
2023-02-21T09:35:41.358Z,45.95
2023-02-21T09:38:10.635Z,45.50
2023-02-21T09:41:01.973Z,45.21
2023-02-21T09:43:52.273Z,44.67
2023-02-21T09:46:49.290Z,44.70
2023-02-21T09:49:34.019Z,44.32
2023-02-21T09:52:03.393Z,44.13
2023-02-21T09:54:47.176Z,44.57
2023-02-21T09:57:18.432Z,44.59
2023-02-21T09:59:48.309Z,44.34
2023-02-21T10:02:54.573Z,43.80
2023-02-21T10:05:33.767Z,43.32
2023-02-21T10:08:18.053Z,43.47
2023-02-21T10:10:53.940Z,42.80
2023-02-21T10:13:35.733Z,42.55
2023-02-21T10:16:24.557Z,43.05
2023-02-21T10:19:13.177Z,42.78
2023-02-21T10:21:44.773Z,42.89
2023-02-21T10:24:15.914Z,42.97
2023-02-21T10:26:49.174Z,42.90
2023-02-21T10:29:20.596Z,43.34
2023-02-21T10:31:53.624Z,43.43
2023-02-21T10:34:27.820Z,42.83
2023-02-21T10:36:57.799Z,42.03
2023-02-21T10:39:56.620Z,41.28
2023-02-21T10:42:33.924Z,41.36
2023-02-21T10:45:05.966Z,40.54
2023-02-21T10:47:53.494Z,41.43
2023-02-21T10:50:39.933Z,41.47
2023-02-21T10:53:09.444Z,40.65
2023-02-21T10:55:38.236Z,40.00
2023-02-21T10:58:19.113Z,39.69
2023-02-21T11:00:48.650Z,38.97
2023-02-21T11:03:20.623Z,38.32
2023-02-21T11:05:59.994Z,37.83
2023-02-21T11:08:42.357Z,39.28
2023-02-21T11:11:11.321Z,37.66
2023-02-21T11:13:39.820Z,37.62
2023-02-21T11:16:20.556Z,38.08
2023-02-21T11:19:06.406Z,37.86
2023-02-21T11:21:34.931Z,38.07
2023-02-21T11:24:05.742Z,37.64
2023-02-21T11:26:45.968Z,35.38
2023-02-21T11:29:18.609Z,35.87
2023-02-21T11:31:47.129Z,35.72
2023-02-21T11:34:19.995Z,34.84
2023-02-21T11:36:49.893Z,34.87
2023-02-21T11:39:19.996Z,34.96
2023-02-21T11:41:51.001Z,35.13
2023-02-21T11:44:39.560Z,34.39
2023-02-21T11:47:07.993Z,35.16
2023-02-21T11:49:49.332Z,35.47
2023-02-21T11:52:25.278Z,35.43
2023-02-21T11:54:54.641Z,35.77
2023-02-21T11:57:30.405Z,35.87
2023-02-21T12:00:24.079Z,35.77
2023-02-21T12:03:19.677Z,35.79
2023-02-21T12:06:14.487Z,36.29
2023-02-21T12:08:53.951Z,36.25
2023-02-21T12:11:47.391Z,36.97
2023-02-21T12:15:03.993Z,37.26
2023-02-21T12:17:41.518Z,37.36
2023-02-21T12:20:22.025Z,37.58
2023-02-21T12:23:02.277Z,38.30
2023-02-21T12:25:50.531Z,37.67
2023-02-21T12:28:33.306Z,36.80
2023-02-21T12:31:11.700Z,34.90
2023-02-21T12:34:20.694Z,33.80
2023-02-21T12:37:21.464Z,33.25
2023-02-21T12:40:18.704Z,33.18
2023-02-21T12:43:25.210Z,33.55
2023-02-21T12:46:19.409Z,34.13
2023-02-21T12:48:57.427Z,34.66
2023-02-21T12:51:30.890Z,35.40
2023-02-21T12:54:06.424Z,35.05
2023-02-21T12:57:05.905Z,34.79
2023-02-21T12:59:46.892Z,33.88
2023-02-21T13:02:39.220Z,33.13
2023-02-21T13:05:18.331Z,33.23
2023-02-21T13:07:59.045Z,33.29
2023-02-21T13:10:51.145Z,33.38
2023-02-21T13:13:27.784Z,33.92
2023-02-21T13:15:57.888Z,33.90
2023-02-21T13:18:37.765Z,33.55
2023-02-21T13:21:45.650Z,33.73
2023-02-21T13:24:21.856Z,34.68
2023-02-21T13:27:08.472Z,34.01
2023-02-21T13:29:39.261Z,33.89
2023-02-21T13:32:20.445Z,34.37
2023-02-21T13:35:02.474Z,34.61
2023-02-21T13:37:34.683Z,34.40
2023-02-21T13:40:16.956Z,34.81
2023-02-21T13:42:45.527Z,34.97
2023-02-21T13:45:23.489Z,35.01
2023-02-21T13:47:57.869Z,35.49
2023-02-21T13:50:38.069Z,36.20
2023-02-21T13:53:09.359Z,36.38
2023-02-21T13:55:38.432Z,36.75
2023-02-21T13:58:07.639Z,37.05
2023-02-21T14:00:35.897Z,37.36
2023-02-21T14:03:07.209Z,38.21
2023-02-21T14:05:44.900Z,42.74
2023-02-21T14:08:16.207Z,46.37
2023-02-21T14:10:53.862Z,48.63
2023-02-21T14:13:54.427Z,51.53
2023-02-21T14:16:48.448Z,52.27
2023-02-21T14:19:26.832Z,53.72
2023-02-21T14:22:03.548Z,55.03
2023-02-21T14:24:36.209Z,56.96
2023-02-21T14:27:25.642Z,57.33
2023-02-21T14:30:03.081Z,57.44
2023-02-21T14:32:52.945Z,57.73
2023-02-21T14:35:33.755Z,58.18
2023-02-21T14:38:08.935Z,58.91
2023-02-21T14:41:01.611Z,59.27
2023-02-21T14:43:31.848Z,59.51
2023-02-21T14:46:26.544Z,59.71
2023-02-21T14:49:00.899Z,59.30
2023-02-21T14:51:47.772Z,59.39
2023-02-21T14:54:40.670Z,59.33
2023-02-21T14:57:27.691Z,59.42
2023-02-21T15:00:03.136Z,59.91
2023-02-21T15:02:46.861Z,60.09
2023-02-21T15:05:19.649Z,60.21
2023-02-21T15:07:48.039Z,60.06
2023-02-21T15:10:22.510Z,60.47
2023-02-21T15:13:02.275Z,60.66
2023-02-21T15:15:38.171Z,60.95
2023-02-21T15:18:25.649Z,60.89
2023-02-21T15:21:12.390Z,61.69
2023-02-21T15:23:45.670Z,61.82
2023-02-21T15:26:30.309Z,62.38
2023-02-21T15:29:07.007Z,62.85
2023-02-21T15:31:48.513Z,63.43
2023-02-21T15:34:32.682Z,63.86
2023-02-21T15:37:20.980Z,64.54
2023-02-21T15:40:04.148Z,65.07
2023-02-21T15:42:35.197Z,65.24
2023-02-21T15:45:10.306Z,65.15
2023-02-21T15:47:39.102Z,64.62
2023-02-21T15:50:07.497Z,64.63
2023-02-21T15:52:46.542Z,63.65
2023-02-21T15:55:20.792Z,63.16
2023-02-21T15:58:08.107Z,62.47
2023-02-21T16:00:48.483Z,61.96
2023-02-21T16:03:29.005Z,61.68
2023-02-21T16:06:25.270Z,61.65
2023-02-21T16:09:08.049Z,61.66
2023-02-21T16:11:58.354Z,61.68
2023-02-21T16:14:38.967Z,61.51
2023-02-21T16:17:13.724Z,61.48
2023-02-21T16:19:48.105Z,61.52
2023-02-21T16:22:59.694Z,61.47
2023-02-21T16:25:26.830Z,61.74
2023-02-21T16:28:00.623Z,61.58
2023-02-21T16:30:32.561Z,61.50
2023-02-21T16:33:04.605Z,61.26
2023-02-21T16:35:34.190Z,60.97
2023-02-21T16:38:02.638Z,60.89
2023-02-21T16:40:39.070Z,60.83
2023-02-21T16:43:07.547Z,60.47
2023-02-21T16:45:39.133Z,60.21
2023-02-21T16:48:18.408Z,60.36
2023-02-21T16:50:48.150Z,61.06
2023-02-21T16:53:17.762Z,61.09
2023-02-21T16:55:46.648Z,61.21
2023-02-21T16:58:31.481Z,61.30
2023-02-21T17:01:08.456Z,61.31
2023-02-21T17:03:36.740Z,61.52
2023-02-21T17:06:06.337Z,61.90
2023-02-21T17:08:34.621Z,61.92
2023-02-21T17:11:06.061Z,63.15
2023-02-21T17:13:34.372Z,63.70
2023-02-21T17:16:02.633Z,63.56
2023-02-21T17:18:31.761Z,64.01
2023-02-21T17:21:00.957Z,63.49
2023-02-21T17:23:29.864Z,64.21
2023-02-21T17:25:58.197Z,64.20
2023-02-21T17:28:26.513Z,64.16
2023-02-21T17:30:54.971Z,64.55
2023-02-21T17:33:32.437Z,64.51
2023-02-21T17:36:01.099Z,64.19
2023-02-21T17:38:29.638Z,65.03
2023-02-21T17:40:58.567Z,65.01
2023-02-21T17:43:27.054Z,64.89
2023-02-21T17:45:55.461Z,67.08
2023-02-21T17:48:23.777Z,68.78
2023-02-21T17:50:52.032Z,70.80
2023-02-21T17:53:20.386Z,74.14
2023-02-21T17:55:48.769Z,75.21
2023-02-21T17:58:17.029Z,75.26
2023-02-21T18:00:45.733Z,74.00
2023-02-21T18:03:14.062Z,74.52
2023-02-21T18:05:44.464Z,74.90
2023-02-21T18:08:17.132Z,74.91
2023-02-21T18:10:48.521Z,74.12
2023-02-21T18:13:21.638Z,73.78
2023-02-21T18:15:50.216Z,72.89
2023-02-21T18:18:18.693Z,73.08
2023-02-21T18:20:47.202Z,72.81
2023-02-21T18:23:16.826Z,71.84
2023-02-21T18:25:45.212Z,71.33
2023-02-21T18:28:13.460Z,71.28
2023-02-21T18:30:42.137Z,71.30
2023-02-21T18:33:10.505Z,70.81
2023-02-21T18:35:39.098Z,71.41
2023-02-21T18:38:07.633Z,71.67
2023-02-21T18:40:44.701Z,71.68
2023-02-21T18:43:23.254Z,72.09
2023-02-21T18:45:53.265Z,71.93
2023-02-21T18:48:22.740Z,71.44
2023-02-21T18:50:51.942Z,71.34
2023-02-21T18:53:20.568Z,71.64
2023-02-21T18:55:48.931Z,71.44
2023-02-21T18:58:17.268Z,71.22
2023-02-21T19:00:47.384Z,70.74
2023-02-21T19:03:15.697Z,70.88
2023-02-21T19:05:44.011Z,70.81
2023-02-21T19:08:12.310Z,70.80
2023-02-21T19:10:40.713Z,70.50
2023-02-21T19:13:09.076Z,70.07
2023-02-21T19:15:37.819Z,69.23
2023-02-21T19:18:06.317Z,69.75
2023-02-21T19:20:34.679Z,69.56
2023-02-21T19:23:03.020Z,70.06
2023-02-21T19:25:31.510Z,69.67
2023-02-21T19:28:03.304Z,69.47
2023-02-21T19:30:37.077Z,69.60
2023-02-21T19:33:08.340Z,69.64
2023-02-21T19:35:37.914Z,69.25
2023-02-21T19:38:07.708Z,69.05
2023-02-21T19:40:36.464Z,68.45
2023-02-21T19:43:04.822Z,67.87
2023-02-21T19:45:33.294Z,67.48
2023-02-21T19:48:01.673Z,67.11
2023-02-21T19:50:35.103Z,67.00
2023-02-21T19:53:03.716Z,67.16
2023-02-21T19:55:31.922Z,66.54
2023-02-21T19:58:00.369Z,66.41
2023-02-21T20:00:28.873Z,66.29
2023-02-21T20:02:57.015Z,66.41
2023-02-21T20:05:25.761Z,66.74
2023-02-21T20:07:54.375Z,66.76
2023-02-21T20:10:25.774Z,66.92
2023-02-21T20:12:57.587Z,66.99
2023-02-21T20:15:26.008Z,67.85
2023-02-21T20:17:55.013Z,68.04
2023-02-21T20:20:23.556Z,68.84
2023-02-21T20:22:51.960Z,68.99
2023-02-21T20:25:20.937Z,69.70
2023-02-21T20:27:49.207Z,69.64
2023-02-21T20:30:17.958Z,69.58
2023-02-21T20:32:46.726Z,70.09
2023-02-21T20:35:15.286Z,70.59
2023-02-21T20:37:43.556Z,70.78
2023-02-21T20:40:15.532Z,71.27
2023-02-21T20:42:44.212Z,70.90
2023-02-21T20:45:12.550Z,71.72
2023-02-21T20:47:41.063Z,72.43
2023-02-21T20:50:09.457Z,73.17
2023-02-21T20:52:41.845Z,73.30
2023-02-21T20:55:10.606Z,73.12
2023-02-21T20:57:38.899Z,73.20
2023-02-21T21:00:10.360Z,73.37
2023-02-21T21:02:39.156Z,72.28
2023-02-21T21:05:13.893Z,71.59
2023-02-21T21:07:43.285Z,69.99
2023-02-21T21:10:14.771Z,70.18
2023-02-21T21:12:43.526Z,70.24
2023-02-21T21:15:14.641Z,70.58
2023-02-21T21:17:43.126Z,70.74
2023-02-21T21:20:14.779Z,70.96
2023-02-21T21:22:45.640Z,74.26
2023-02-21T21:25:14.834Z,75.99
2023-02-21T21:27:44.845Z,77.76
2023-02-21T21:30:18.469Z,77.88
2023-02-21T21:32:46.871Z,77.48
2023-02-21T21:35:18.218Z,76.42
2023-02-21T21:37:47.228Z,76.65
2023-02-21T21:40:27.070Z,76.25
2023-02-21T21:42:55.977Z,76.65
2023-02-21T21:45:27.756Z,76.62
2023-02-21T21:48:00.399Z,77.51
2023-02-21T21:50:28.777Z,78.13
2023-02-21T21:52:58.956Z,77.52
2023-02-21T21:55:29.777Z,78.20
2023-02-21T21:57:59.229Z,79.29
2023-02-21T22:00:30.223Z,79.44
2023-02-21T22:03:02.485Z,80.07
2023-02-21T22:05:32.042Z,80.60
2023-02-21T22:08:00.453Z,80.86
2023-02-21T22:10:29.396Z,80.91
2023-02-21T22:13:00.164Z,81.19
2023-02-21T22:15:29.698Z,81.38
2023-02-21T22:18:04.396Z,81.48
2023-02-21T22:20:32.674Z,81.11
2023-02-21T22:23:01.014Z,80.96
2023-02-21T22:25:30.883Z,80.78
2023-02-21T22:28:03.428Z,80.91
2023-02-21T22:30:31.924Z,80.97
2023-02-21T22:33:00.612Z,80.98
2023-02-21T22:35:29.086Z,79.61
2023-02-21T22:38:02.266Z,77.93
2023-02-21T22:40:35.818Z,76.86
2023-02-21T22:43:11.384Z,77.45
2023-02-21T22:45:39.652Z,77.37
2023-02-21T22:48:10.247Z,77.73
2023-02-21T22:50:40.522Z,77.29
2023-02-21T22:53:13.338Z,77.76
2023-02-21T22:55:41.785Z,77.24
2023-02-21T22:58:10.541Z,77.76
2023-02-21T23:00:40.597Z,78.76
2023-02-21T23:03:15.811Z,78.53
2023-02-21T23:05:55.115Z,78.20
2023-02-21T23:08:23.712Z,78.15
2023-02-21T23:10:52.079Z,78.48
2023-02-21T23:13:23.280Z,78.44
2023-02-21T23:15:54.096Z,77.55
2023-02-21T23:18:24.905Z,76.98
2023-02-21T23:20:58.175Z,76.92
2023-02-21T23:23:28.452Z,75.75
2023-02-21T23:26:01.296Z,74.76
2023-02-21T23:28:30.912Z,73.83
2023-02-21T23:30:59.478Z,73.27
2023-02-21T23:33:30.104Z,72.06
2023-02-21T23:35:58.440Z,72.34
2023-02-21T23:38:30.757Z,72.35
2023-02-21T23:40:59.939Z,71.54
2023-02-21T23:43:30.666Z,71.16
2023-02-21T23:46:00.444Z,71.22
2023-02-21T23:48:29.827Z,71.04
2023-02-21T23:50:58.464Z,70.79
2023-02-21T23:53:28.768Z,71.09
2023-02-21T23:55:58.146Z,70.76
2023-02-21T23:58:29.885Z,70.35
